sensor_id;sensor_type;location;lat;lon;timestamp;P1;durP1;ratioP1;P2;durP2;ratioP2
23750;SDS011;12055;52.098;13.176;2022-08-19T00:01:09;16.30;;;11.25;;
23750;SDS011;12055;52.098;13.176;2022-08-19T00:03:35;18.95;;;12.52;;
23750;SDS011;12055;52.098;13.176;2022-08-19T00:06:00;19.58;;;13.07;;
23750;SDS011;12055;52.098;13.176;2022-08-19T00:08:26;18.60;;;12.30;;
23750;SDS011;12055;52.098;13.176;2022-08-19T00:10:51;16.10;;;11.98;;
23750;SDS011;12055;52.098;13.176;2022-08-19T00:13:17;17.23;;;11.70;;
23750;SDS011;12055;52.098;13.176;2022-08-19T00:15:43;18.13;;;12.70;;
23750;SDS011;12055;52.098;13.176;2022-08-19T00:18:09;15.05;;;11.82;;
23750;SDS011;12055;52.098;13.176;2022-08-19T00:20:35;13.98;;;10.68;;
23750;SDS011;12055;52.098;13.176;2022-08-19T00:23:03;15.95;;;12.13;;
23750;SDS011;12055;52.098;13.176;2022-08-19T00:25:28;18.00;;;11.25;;
23750;SDS011;12055;52.098;13.176;2022-08-19T00:27:54;15.00;;;11.20;;
23750;SDS011;12055;52.098;13.176;2022-08-19T00:30:19;22.38;;;12.60;;
23750;SDS011;12055;52.098;13.176;2022-08-19T00:32:45;26.80;;;14.35;;
23750;SDS011;12055;52.098;13.176;2022-08-19T00:35:11;19.98;;;12.00;;
23750;SDS011;12055;52.098;13.176;2022-08-19T00:37:36;19.02;;;13.75;;
23750;SDS011;12055;52.098;13.176;2022-08-19T00:40:04;16.17;;;12.45;;
23750;SDS011;12055;52.098;13.176;2022-08-19T00:42:31;15.65;;;12.35;;
23750;SDS011;12055;52.098;13.176;2022-08-19T00:44:56;20.30;;;12.70;;
23750;SDS011;12055;52.098;13.176;2022-08-19T00:47:22;18.50;;;12.57;;
23750;SDS011;12055;52.098;13.176;2022-08-19T00:49:53;14.55;;;10.88;;
23750;SDS011;12055;52.098;13.176;2022-08-19T00:52:29;18.33;;;12.27;;
23750;SDS011;12055;52.098;13.176;2022-08-19T00:54:58;15.80;;;11.90;;
23750;SDS011;12055;52.098;13.176;2022-08-19T00:57:28;15.57;;;11.82;;
23750;SDS011;12055;52.098;13.176;2022-08-19T00:59:59;18.60;;;12.38;;
23750;SDS011;12055;52.098;13.176;2022-08-19T01:02:26;16.48;;;11.60;;
23750;SDS011;12055;52.098;13.176;2022-08-19T01:04:53;16.70;;;11.27;;
23750;SDS011;12055;52.098;13.176;2022-08-19T01:07:18;13.52;;;10.50;;
23750;SDS011;12055;52.098;13.176;2022-08-19T01:09:44;18.65;;;10.88;;
23750;SDS011;12055;52.098;13.176;2022-08-19T01:12:10;15.85;;;11.63;;
23750;SDS011;12055;52.098;13.176;2022-08-19T01:14:36;18.25;;;11.70;;
23750;SDS011;12055;52.098;13.176;2022-08-19T01:17:04;15.90;;;10.95;;
23750;SDS011;12055;52.098;13.176;2022-08-19T01:19:33;19.13;;;11.80;;
23750;SDS011;12055;52.098;13.176;2022-08-19T01:22:03;16.42;;;11.35;;
23750;SDS011;12055;52.098;13.176;2022-08-19T01:25:04;16.25;;;11.57;;
23750;SDS011;12055;52.098;13.176;2022-08-19T01:27:38;17.35;;;10.88;;
23750;SDS011;12055;52.098;13.176;2022-08-19T01:30:05;18.38;;;11.30;;
23750;SDS011;12055;52.098;13.176;2022-08-19T01:32:31;15.07;;;11.00;;
23750;SDS011;12055;52.098;13.176;2022-08-19T01:34:56;18.45;;;11.27;;
23750;SDS011;12055;52.098;13.176;2022-08-19T01:37:22;15.48;;;10.88;;
23750;SDS011;12055;52.098;13.176;2022-08-19T01:39:48;18.92;;;11.02;;
23750;SDS011;12055;52.098;13.176;2022-08-19T01:42:14;14.40;;;10.45;;
23750;SDS011;12055;52.098;13.176;2022-08-19T01:44:39;16.50;;;11.18;;
23750;SDS011;12055;52.098;13.176;2022-08-19T01:47:08;19.58;;;11.50;;
23750;SDS011;12055;52.098;13.176;2022-08-19T01:49:37;17.00;;;10.90;;
23750;SDS011;12055;52.098;13.176;2022-08-19T01:52:03;14.43;;;11.10;;
23750;SDS011;12055;52.098;13.176;2022-08-19T01:54:29;15.45;;;10.50;;
23750;SDS011;12055;52.098;13.176;2022-08-19T01:56:59;16.85;;;10.45;;
23750;SDS011;12055;52.098;13.176;2022-08-19T01:59:33;15.68;;;10.68;;
23750;SDS011;12055;52.098;13.176;2022-08-19T02:02:01;15.55;;;10.85;;
23750;SDS011;12055;52.098;13.176;2022-08-19T02:04:28;13.75;;;10.63;;
23750;SDS011;12055;52.098;13.176;2022-08-19T02:06:53;17.25;;;11.40;;
23750;SDS011;12055;52.098;13.176;2022-08-19T02:09:19;16.75;;;12.30;;
23750;SDS011;12055;52.098;13.176;2022-08-19T02:11:44;17.67;;;11.40;;
23750;SDS011;12055;52.098;13.176;2022-08-19T02:14:10;15.75;;;11.25;;
23750;SDS011;12055;52.098;13.176;2022-08-19T02:16:36;17.52;;;11.57;;
23750;SDS011;12055;52.098;13.176;2022-08-19T02:19:02;17.85;;;10.90;;
23750;SDS011;12055;52.098;13.176;2022-08-19T02:21:29;17.58;;;11.23;;
23750;SDS011;12055;52.098;13.176;2022-08-19T02:23:54;15.43;;;10.25;;
23750;SDS011;12055;52.098;13.176;2022-08-19T02:26:20;17.77;;;10.95;;
23750;SDS011;12055;52.098;13.176;2022-08-19T02:28:46;15.38;;;10.80;;
23750;SDS011;12055;52.098;13.176;2022-08-19T02:31:14;16.10;;;11.07;;
23750;SDS011;12055;52.098;13.176;2022-08-19T02:33:41;16.02;;;11.07;;
23750;SDS011;12055;52.098;13.176;2022-08-19T02:36:07;19.25;;;11.15;;
23750;SDS011;12055;52.098;13.176;2022-08-19T02:38:34;17.45;;;10.77;;
23750;SDS011;12055;52.098;13.176;2022-08-19T02:41:04;15.73;;;11.07;;
23750;SDS011;12055;52.098;13.176;2022-08-19T02:43:41;14.30;;;10.25;;
23750;SDS011;12055;52.098;13.176;2022-08-19T02:46:14;19.73;;;12.05;;
23750;SDS011;12055;52.098;13.176;2022-08-19T02:48:49;16.83;;;10.90;;
23750;SDS011;12055;52.098;13.176;2022-08-19T02:51:19;14.77;;;10.77;;
23750;SDS011;12055;52.098;13.176;2022-08-19T02:53:46;16.13;;;11.68;;
23750;SDS011;12055;52.098;13.176;2022-08-19T02:56:12;14.50;;;10.60;;
23750;SDS011;12055;52.098;13.176;2022-08-19T02:58:38;16.98;;;11.98;;
23750;SDS011;12055;52.098;13.176;2022-08-19T03:01:04;15.23;;;11.70;;
23750;SDS011;12055;52.098;13.176;2022-08-19T03:03:29;18.33;;;11.48;;
23750;SDS011;12055;52.098;13.176;2022-08-19T03:06:10;15.43;;;11.30;;
23750;SDS011;12055;52.098;13.176;2022-08-19T03:08:39;19.83;;;13.10;;
23750;SDS011;12055;52.098;13.176;2022-08-19T03:11:06;18.60;;;12.57;;
23750;SDS011;12055;52.098;13.176;2022-08-19T03:13:36;17.52;;;12.13;;
23750;SDS011;12055;52.098;13.176;2022-08-19T03:16:03;15.60;;;11.43;;
23750;SDS011;12055;52.098;13.176;2022-08-19T03:18:29;16.15;;;12.02;;
23750;SDS011;12055;52.098;13.176;2022-08-19T03:20:55;16.83;;;12.10;;
23750;SDS011;12055;52.098;13.176;2022-08-19T03:23:21;17.45;;;11.68;;
23750;SDS011;12055;52.098;13.176;2022-08-19T03:25:48;18.73;;;12.27;;
23750;SDS011;12055;52.098;13.176;2022-08-19T03:28:15;20.70;;;13.10;;
23750;SDS011;12055;52.098;13.176;2022-08-19T03:30:42;16.95;;;12.55;;
23750;SDS011;12055;52.098;13.176;2022-08-19T03:33:20;20.85;;;12.98;;
23750;SDS011;12055;52.098;13.176;2022-08-19T03:35:46;17.98;;;12.48;;
23750;SDS011;12055;52.098;13.176;2022-08-19T03:38:12;18.80;;;12.98;;
23750;SDS011;12055;52.098;13.176;2022-08-19T03:40:37;16.88;;;12.15;;
23750;SDS011;12055;52.098;13.176;2022-08-19T03:43:03;17.70;;;12.32;;
23750;SDS011;12055;52.098;13.176;2022-08-19T03:45:28;22.33;;;12.90;;
23750;SDS011;12055;52.098;13.176;2022-08-19T03:47:54;22.08;;;12.73;;
23750;SDS011;12055;52.098;13.176;2022-08-19T03:50:20;17.88;;;12.45;;
23750;SDS011;12055;52.098;13.176;2022-08-19T03:52:49;15.00;;;11.57;;
23750;SDS011;12055;52.098;13.176;2022-08-19T03:55:15;15.32;;;11.07;;
23750;SDS011;12055;52.098;13.176;2022-08-19T03:57:41;16.08;;;11.43;;
23750;SDS011;12055;52.098;13.176;2022-08-19T04:00:07;18.13;;;11.98;;
23750;SDS011;12055;52.098;13.176;2022-08-19T04:02:34;21.05;;;12.30;;
23750;SDS011;12055;52.098;13.176;2022-08-19T04:04:59;16.50;;;11.98;;
23750;SDS011;12055;52.098;13.176;2022-08-19T04:07:25;17.92;;;11.57;;
23750;SDS011;12055;52.098;13.176;2022-08-19T04:09:50;19.88;;;12.23;;
23750;SDS011;12055;52.098;13.176;2022-08-19T04:12:16;18.45;;;12.07;;
23750;SDS011;12055;52.098;13.176;2022-08-19T04:14:44;19.20;;;13.00;;
23750;SDS011;12055;52.098;13.176;2022-08-19T04:17:09;17.60;;;11.23;;
23750;SDS011;12055;52.098;13.176;2022-08-19T04:19:35;16.27;;;11.50;;
23750;SDS011;12055;52.098;13.176;2022-08-19T04:22:02;15.88;;;11.98;;
23750;SDS011;12055;52.098;13.176;2022-08-19T04:24:28;19.40;;;12.55;;
23750;SDS011;12055;52.098;13.176;2022-08-19T04:26:54;18.40;;;12.15;;
23750;SDS011;12055;52.098;13.176;2022-08-19T04:29:21;15.95;;;11.40;;
23750;SDS011;12055;52.098;13.176;2022-08-19T04:31:50;16.80;;;12.05;;
23750;SDS011;12055;52.098;13.176;2022-08-19T04:34:17;17.23;;;12.43;;
23750;SDS011;12055;52.098;13.176;2022-08-19T04:36:46;17.58;;;11.63;;
23750;SDS011;12055;52.098;13.176;2022-08-19T04:39:14;18.38;;;12.07;;
23750;SDS011;12055;52.098;13.176;2022-08-19T04:41:42;17.42;;;12.50;;
23750;SDS011;12055;52.098;13.176;2022-08-19T04:44:26;16.98;;;11.38;;
23750;SDS011;12055;52.098;13.176;2022-08-19T04:46:55;16.30;;;12.05;;
23750;SDS011;12055;52.098;13.176;2022-08-19T04:49:21;17.98;;;11.52;;
23750;SDS011;12055;52.098;13.176;2022-08-19T04:51:48;18.98;;;11.93;;
23750;SDS011;12055;52.098;13.176;2022-08-19T04:54:15;17.20;;;12.27;;
23750;SDS011;12055;52.098;13.176;2022-08-19T04:56:43;19.90;;;12.18;;
23750;SDS011;12055;52.098;13.176;2022-08-19T04:59:08;17.60;;;11.60;;
23750;SDS011;12055;52.098;13.176;2022-08-19T05:01:35;15.43;;;10.82;;
23750;SDS011;12055;52.098;13.176;2022-08-19T05:04:02;16.27;;;11.00;;
23750;SDS011;12055;52.098;13.176;2022-08-19T05:06:29;16.67;;;12.27;;
23750;SDS011;12055;52.098;13.176;2022-08-19T05:08:57;14.73;;;11.07;;
23750;SDS011;12055;52.098;13.176;2022-08-19T05:11:25;15.82;;;10.55;;
23750;SDS011;12055;52.098;13.176;2022-08-19T05:13:53;14.65;;;11.38;;
23750;SDS011;12055;52.098;13.176;2022-08-19T05:16:20;18.23;;;10.80;;
23750;SDS011;12055;52.098;13.176;2022-08-19T05:18:46;16.75;;;11.25;;
23750;SDS011;12055;52.098;13.176;2022-08-19T05:21:31;15.48;;;10.55;;
23750;SDS011;12055;52.098;13.176;2022-08-19T05:24:16;16.08;;;11.00;;
23750;SDS011;12055;52.098;13.176;2022-08-19T05:26:45;15.18;;;10.85;;
23750;SDS011;12055;52.098;13.176;2022-08-19T05:29:14;15.82;;;11.65;;
23750;SDS011;12055;52.098;13.176;2022-08-19T05:31:41;15.40;;;10.90;;
23750;SDS011;12055;52.098;13.176;2022-08-19T05:34:07;15.15;;;11.70;;
23750;SDS011;12055;52.098;13.176;2022-08-19T05:36:35;15.82;;;10.65;;
23750;SDS011;12055;52.098;13.176;2022-08-19T05:39:04;13.75;;;10.35;;
23750;SDS011;12055;52.098;13.176;2022-08-19T05:41:32;12.93;;;10.13;;
23750;SDS011;12055;52.098;13.176;2022-08-19T05:43:58;14.30;;;10.05;;
23750;SDS011;12055;52.098;13.176;2022-08-19T05:46:26;13.13;;;10.10;;
23750;SDS011;12055;52.098;13.176;2022-08-19T05:48:52;15.57;;;9.68;;
23750;SDS011;12055;52.098;13.176;2022-08-19T05:51:18;15.88;;;10.57;;
23750;SDS011;12055;52.098;13.176;2022-08-19T05:53:43;12.30;;;9.68;;
23750;SDS011;12055;52.098;13.176;2022-08-19T05:56:14;12.73;;;9.52;;
23750;SDS011;12055;52.098;13.176;2022-08-19T05:58:41;10.90;;;9.40;;
23750;SDS011;12055;52.098;13.176;2022-08-19T06:01:10;12.57;;;9.68;;
23750;SDS011;12055;52.098;13.176;2022-08-19T06:03:40;11.15;;;8.75;;
23750;SDS011;12055;52.098;13.176;2022-08-19T06:06:07;11.50;;;9.00;;
23750;SDS011;12055;52.098;13.176;2022-08-19T06:08:34;13.25;;;9.23;;
23750;SDS011;12055;52.098;13.176;2022-08-19T06:11:19;11.02;;;8.88;;
23750;SDS011;12055;52.098;13.176;2022-08-19T06:13:47;11.70;;;9.02;;
23750;SDS011;12055;52.098;13.176;2022-08-19T06:16:16;13.07;;;9.30;;
23750;SDS011;12055;52.098;13.176;2022-08-19T06:18:46;12.90;;;9.05;;
23750;SDS011;12055;52.098;13.176;2022-08-19T06:21:20;12.35;;;9.13;;
23750;SDS011;12055;52.098;13.176;2022-08-19T06:23:47;11.88;;;9.35;;
23750;SDS011;12055;52.098;13.176;2022-08-19T06:26:16;12.98;;;9.85;;
23750;SDS011;12055;52.098;13.176;2022-08-19T06:28:43;15.93;;;10.32;;
23750;SDS011;12055;52.098;13.176;2022-08-19T06:31:18;14.07;;;9.88;;
23750;SDS011;12055;52.098;13.176;2022-08-19T06:33:47;11.40;;;8.88;;
23750;SDS011;12055;52.098;13.176;2022-08-19T06:36:19;11.02;;;8.98;;
23750;SDS011;12055;52.098;13.176;2022-08-19T06:38:54;14.95;;;9.48;;
23750;SDS011;12055;52.098;13.176;2022-08-19T06:41:22;11.75;;;9.38;;
23750;SDS011;12055;52.098;13.176;2022-08-19T06:43:47;11.55;;;8.85;;
23750;SDS011;12055;52.098;13.176;2022-08-19T06:46:14;10.75;;;9.13;;
23750;SDS011;12055;52.098;13.176;2022-08-19T06:48:41;13.13;;;9.32;;
23750;SDS011;12055;52.098;13.176;2022-08-19T06:51:07;13.45;;;10.18;;
23750;SDS011;12055;52.098;13.176;2022-08-19T06:53:32;11.98;;;8.95;;
23750;SDS011;12055;52.098;13.176;2022-08-19T06:55:58;12.13;;;9.57;;
23750;SDS011;12055;52.098;13.176;2022-08-19T06:58:27;12.15;;;10.02;;
23750;SDS011;12055;52.098;13.176;2022-08-19T07:01:00;13.43;;;10.35;;
23750;SDS011;12055;52.098;13.176;2022-08-19T07:03:28;11.13;;;9.20;;
23750;SDS011;12055;52.098;13.176;2022-08-19T07:05:56;13.05;;;10.13;;
23750;SDS011;12055;52.098;13.176;2022-08-19T07:08:22;14.52;;;10.90;;
23750;SDS011;12055;52.098;13.176;2022-08-19T07:10:50;13.05;;;9.13;;
23750;SDS011;12055;52.098;13.176;2022-08-19T07:13:16;10.73;;;8.80;;
23750;SDS011;12055;52.098;13.176;2022-08-19T07:15:41;14.43;;;10.38;;
23750;SDS011;12055;52.098;13.176;2022-08-19T07:18:07;15.15;;;10.80;;
23750;SDS011;12055;52.098;13.176;2022-08-19T07:20:32;12.50;;;10.02;;
23750;SDS011;12055;52.098;13.176;2022-08-19T07:22:58;16.90;;;10.15;;
23750;SDS011;12055;52.098;13.176;2022-08-19T07:25:23;16.83;;;11.20;;
23750;SDS011;12055;52.098;13.176;2022-08-19T07:27:49;13.95;;;11.02;;
23750;SDS011;12055;52.098;13.176;2022-08-19T07:30:16;15.60;;;11.00;;
23750;SDS011;12055;52.098;13.176;2022-08-19T07:32:42;17.38;;;11.90;;
23750;SDS011;12055;52.098;13.176;2022-08-19T07:35:08;15.90;;;10.93;;
23750;SDS011;12055;52.098;13.176;2022-08-19T07:37:34;14.05;;;11.18;;
23750;SDS011;12055;52.098;13.176;2022-08-19T07:40:02;16.35;;;12.50;;
23750;SDS011;12055;52.098;13.176;2022-08-19T07:42:30;16.08;;;11.95;;
23750;SDS011;12055;52.098;13.176;2022-08-19T07:44:55;16.33;;;12.40;;
23750;SDS011;12055;52.098;13.176;2022-08-19T07:47:21;14.57;;;12.25;;
23750;SDS011;12055;52.098;13.176;2022-08-19T07:49:46;17.83;;;12.25;;
23750;SDS011;12055;52.098;13.176;2022-08-19T07:52:12;17.58;;;12.95;;
23750;SDS011;12055;52.098;13.176;2022-08-19T07:54:38;18.60;;;13.38;;
23750;SDS011;12055;52.098;13.176;2022-08-19T07:57:05;22.27;;;13.55;;
23750;SDS011;12055;52.098;13.176;2022-08-19T07:59:31;18.13;;;13.55;;
23750;SDS011;12055;52.098;13.176;2022-08-19T08:01:57;20.55;;;14.20;;
23750;SDS011;12055;52.098;13.176;2022-08-19T08:04:25;20.52;;;14.10;;
23750;SDS011;12055;52.098;13.176;2022-08-19T08:07:09;18.45;;;13.68;;
23750;SDS011;12055;52.098;13.176;2022-08-19T08:09:53;21.10;;;15.75;;
23750;SDS011;12055;52.098;13.176;2022-08-19T08:12:20;19.77;;;14.85;;
23750;SDS011;12055;52.098;13.176;2022-08-19T08:14:50;21.58;;;14.55;;
23750;SDS011;12055;52.098;13.176;2022-08-19T08:17:19;21.90;;;15.43;;
23750;SDS011;12055;52.098;13.176;2022-08-19T08:19:46;21.90;;;16.08;;
23750;SDS011;12055;52.098;13.176;2022-08-19T08:22:14;25.27;;;15.82;;
23750;SDS011;12055;52.098;13.176;2022-08-19T08:25:02;22.95;;;15.88;;
23750;SDS011;12055;52.098;13.176;2022-08-19T08:27:29;23.67;;;16.48;;
23750;SDS011;12055;52.098;13.176;2022-08-19T08:29:56;20.55;;;16.02;;
23750;SDS011;12055;52.098;13.176;2022-08-19T08:32:23;24.95;;;16.48;;
23750;SDS011;12055;52.098;13.176;2022-08-19T08:34:48;24.10;;;16.17;;
23750;SDS011;12055;52.098;13.176;2022-08-19T08:37:14;23.13;;;16.85;;
23750;SDS011;12055;52.098;13.176;2022-08-19T08:39:39;24.10;;;17.88;;
23750;SDS011;12055;52.098;13.176;2022-08-19T08:42:17;21.95;;;16.33;;
23750;SDS011;12055;52.098;13.176;2022-08-19T08:44:58;24.55;;;16.77;;
23750;SDS011;12055;52.098;13.176;2022-08-19T08:47:29;27.92;;;18.33;;
23750;SDS011;12055;52.098;13.176;2022-08-19T08:50:03;25.55;;;17.15;;
23750;SDS011;12055;52.098;13.176;2022-08-19T08:52:36;24.88;;;17.85;;
23750;SDS011;12055;52.098;13.176;2022-08-19T08:55:08;25.60;;;17.63;;
23750;SDS011;12055;52.098;13.176;2022-08-19T09:00:23;29.58;;;18.25;;
23750;SDS011;12055;52.098;13.176;2022-08-19T09:02:51;26.20;;;18.77;;
23750;SDS011;12055;52.098;13.176;2022-08-19T09:05:18;25.08;;;17.80;;
23750;SDS011;12055;52.098;13.176;2022-08-19T09:07:51;27.77;;;19.17;;
23750;SDS011;12055;52.098;13.176;2022-08-19T09:10:29;25.70;;;18.15;;
23750;SDS011;12055;52.098;13.176;2022-08-19T09:13:33;32.70;;;19.15;;
23750;SDS011;12055;52.098;13.176;2022-08-19T09:16:06;27.35;;;18.83;;
23750;SDS011;12055;52.098;13.176;2022-08-19T09:18:41;25.40;;;18.40;;
23750;SDS011;12055;52.098;13.176;2022-08-19T09:21:12;31.10;;;18.98;;
23750;SDS011;12055;52.098;13.176;2022-08-19T09:23:39;31.23;;;21.42;;
23750;SDS011;12055;52.098;13.176;2022-08-19T09:26:08;26.98;;;19.00;;
23750;SDS011;12055;52.098;13.176;2022-08-19T09:28:41;26.35;;;18.73;;
23750;SDS011;12055;52.098;13.176;2022-08-19T09:31:12;27.58;;;19.08;;
23750;SDS011;12055;52.098;13.176;2022-08-19T09:33:39;27.95;;;18.88;;
23750;SDS011;12055;52.098;13.176;2022-08-19T09:36:09;29.60;;;19.58;;
23750;SDS011;12055;52.098;13.176;2022-08-19T09:38:36;24.90;;;18.55;;
23750;SDS011;12055;52.098;13.176;2022-08-19T09:41:06;27.08;;;17.77;;
23750;SDS011;12055;52.098;13.176;2022-08-19T09:43:33;31.25;;;19.85;;
23750;SDS011;12055;52.098;13.176;2022-08-19T09:46:02;30.23;;;20.15;;
23750;SDS011;12055;52.098;13.176;2022-08-19T09:48:34;25.92;;;18.92;;
23750;SDS011;12055;52.098;13.176;2022-08-19T09:51:05;27.40;;;18.52;;
23750;SDS011;12055;52.098;13.176;2022-08-19T09:53:33;28.63;;;19.73;;
23750;SDS011;12055;52.098;13.176;2022-08-19T09:55:59;34.08;;;20.60;;
23750;SDS011;12055;52.098;13.176;2022-08-19T09:58:24;28.90;;;20.00;;
23750;SDS011;12055;52.098;13.176;2022-08-19T10:00:53;32.42;;;20.92;;
23750;SDS011;12055;52.098;13.176;2022-08-19T10:03:19;30.85;;;19.65;;
23750;SDS011;12055;52.098;13.176;2022-08-19T10:05:44;31.05;;;19.95;;
23750;SDS011;12055;52.098;13.176;2022-08-19T10:08:13;31.10;;;20.92;;
23750;SDS011;12055;52.098;13.176;2022-08-19T10:10:40;30.00;;;19.02;;
23750;SDS011;12055;52.098;13.176;2022-08-19T10:13:08;31.98;;;20.52;;
23750;SDS011;12055;52.098;13.176;2022-08-19T10:15:34;33.00;;;20.33;;
23750;SDS011;12055;52.098;13.176;2022-08-19T10:18:00;30.33;;;20.30;;
23750;SDS011;12055;52.098;13.176;2022-08-19T10:20:26;35.25;;;21.70;;
23750;SDS011;12055;52.098;13.176;2022-08-19T10:22:51;35.28;;;20.92;;
23750;SDS011;12055;52.098;13.176;2022-08-19T10:25:16;35.22;;;21.92;;
23750;SDS011;12055;52.098;13.176;2022-08-19T10:27:42;36.05;;;21.60;;
23750;SDS011;12055;52.098;13.176;2022-08-19T10:30:08;35.10;;;22.75;;
23750;SDS011;12055;52.098;13.176;2022-08-19T10:32:34;39.25;;;22.02;;
23750;SDS011;12055;52.098;13.176;2022-08-19T10:35:00;39.08;;;21.92;;
23750;SDS011;12055;52.098;13.176;2022-08-19T10:37:26;37.75;;;21.77;;
23750;SDS011;12055;52.098;13.176;2022-08-19T10:39:51;38.25;;;23.15;;
23750;SDS011;12055;52.098;13.176;2022-08-19T10:42:17;35.55;;;22.38;;
23750;SDS011;12055;52.098;13.176;2022-08-19T10:44:43;43.40;;;23.33;;
23750;SDS011;12055;52.098;13.176;2022-08-19T10:47:09;36.80;;;21.88;;
23750;SDS011;12055;52.098;13.176;2022-08-19T10:49:35;41.15;;;23.40;;
23750;SDS011;12055;52.098;13.176;2022-08-19T10:52:21;39.55;;;23.65;;
23750;SDS011;12055;52.098;13.176;2022-08-19T10:54:58;36.90;;;22.30;;
23750;SDS011;12055;52.098;13.176;2022-08-19T10:57:43;44.50;;;22.83;;
23750;SDS011;12055;52.098;13.176;2022-08-19T11:00:08;48.45;;;24.52;;
23750;SDS011;12055;52.098;13.176;2022-08-19T11:02:34;44.38;;;24.10;;
23750;SDS011;12055;52.098;13.176;2022-08-19T11:05:00;48.47;;;23.70;;
23750;SDS011;12055;52.098;13.176;2022-08-19T11:07:25;41.50;;;23.58;;
23750;SDS011;12055;52.098;13.176;2022-08-19T11:09:51;42.80;;;23.88;;
23750;SDS011;12055;52.098;13.176;2022-08-19T11:12:16;48.95;;;25.00;;
23750;SDS011;12055;52.098;13.176;2022-08-19T11:14:42;44.28;;;23.63;;
23750;SDS011;12055;52.098;13.176;2022-08-19T11:17:07;50.78;;;26.35;;
23750;SDS011;12055;52.098;13.176;2022-08-19T11:19:33;48.88;;;25.13;;
23750;SDS011;12055;52.098;13.176;2022-08-19T11:21:59;47.10;;;25.95;;
23750;SDS011;12055;52.098;13.176;2022-08-19T11:24:27;53.45;;;25.48;;
23750;SDS011;12055;52.098;13.176;2022-08-19T11:26:53;48.13;;;25.50;;
23750;SDS011;12055;52.098;13.176;2022-08-19T11:29:25;49.63;;;25.17;;
23750;SDS011;12055;52.098;13.176;2022-08-19T11:31:52;44.42;;;22.75;;
23750;SDS011;12055;52.098;13.176;2022-08-19T11:34:19;47.20;;;25.45;;
23750;SDS011;12055;52.098;13.176;2022-08-19T11:36:47;44.05;;;23.33;;
23750;SDS011;12055;52.098;13.176;2022-08-19T11:39:15;44.33;;;23.52;;
23750;SDS011;12055;52.098;13.176;2022-08-19T11:41:44;48.42;;;24.40;;
23750;SDS011;12055;52.098;13.176;2022-08-19T11:44:09;45.75;;;23.75;;
23750;SDS011;12055;52.098;13.176;2022-08-19T11:46:35;45.20;;;22.92;;
23750;SDS011;12055;52.098;13.176;2022-08-19T11:49:03;41.83;;;20.95;;
23750;SDS011;12055;52.098;13.176;2022-08-19T11:51:29;45.22;;;22.08;;
23750;SDS011;12055;52.098;13.176;2022-08-19T11:53:56;44.38;;;23.08;;
23750;SDS011;12055;52.098;13.176;2022-08-19T11:56:23;39.53;;;21.45;;
23750;SDS011;12055;52.098;13.176;2022-08-19T11:58:50;45.80;;;22.10;;
23750;SDS011;12055;52.098;13.176;2022-08-19T12:01:18;32.90;;;18.77;;
23750;SDS011;12055;52.098;13.176;2022-08-19T12:03:45;33.38;;;18.67;;
23750;SDS011;12055;52.098;13.176;2022-08-19T12:06:14;39.65;;;20.05;;
23750;SDS011;12055;52.098;13.176;2022-08-19T12:08:45;36.58;;;19.90;;
23750;SDS011;12055;52.098;13.176;2022-08-19T12:11:12;33.97;;;17.70;;
23750;SDS011;12055;52.098;13.176;2022-08-19T12:13:38;33.03;;;18.23;;
23750;SDS011;12055;52.098;13.176;2022-08-19T12:16:08;29.98;;;16.52;;
23750;SDS011;12055;52.098;13.176;2022-08-19T12:18:37;29.83;;;17.27;;
23750;SDS011;12055;52.098;13.176;2022-08-19T12:21:03;30.60;;;17.77;;
23750;SDS011;12055;52.098;13.176;2022-08-19T12:23:29;28.48;;;16.20;;
23750;SDS011;12055;52.098;13.176;2022-08-19T12:25:55;29.00;;;17.63;;
23750;SDS011;12055;52.098;13.176;2022-08-19T12:28:22;27.65;;;16.08;;
23750;SDS011;12055;52.098;13.176;2022-08-19T12:30:49;26.42;;;15.98;;
23750;SDS011;12055;52.098;13.176;2022-08-19T12:33:16;27.10;;;16.60;;
23750;SDS011;12055;52.098;13.176;2022-08-19T12:35:43;22.67;;;14.88;;
23750;SDS011;12055;52.098;13.176;2022-08-19T12:38:11;28.55;;;16.35;;
23750;SDS011;12055;52.098;13.176;2022-08-19T12:40:38;26.15;;;15.68;;
23750;SDS011;12055;52.098;13.176;2022-08-19T12:43:05;25.02;;;16.02;;
23750;SDS011;12055;52.098;13.176;2022-08-19T12:45:31;24.27;;;15.57;;
23750;SDS011;12055;52.098;13.176;2022-08-19T12:47:56;29.13;;;16.40;;
23750;SDS011;12055;52.098;13.176;2022-08-19T12:50:22;27.63;;;15.45;;
23750;SDS011;12055;52.098;13.176;2022-08-19T12:52:47;26.42;;;14.80;;
23750;SDS011;12055;52.098;13.176;2022-08-19T12:55:13;23.92;;;14.10;;
23750;SDS011;12055;52.098;13.176;2022-08-19T12:57:39;28.00;;;16.10;;
23750;SDS011;12055;52.098;13.176;2022-08-19T13:00:06;28.45;;;15.30;;
23750;SDS011;12055;52.098;13.176;2022-08-19T13:02:36;24.13;;;15.57;;
23750;SDS011;12055;52.098;13.176;2022-08-19T13:05:03;28.65;;;16.05;;
23750;SDS011;12055;52.098;13.176;2022-08-19T13:07:31;24.35;;;15.35;;
23750;SDS011;12055;52.098;13.176;2022-08-19T13:09:57;26.38;;;15.48;;
23750;SDS011;12055;52.098;13.176;2022-08-19T13:12:22;23.88;;;13.95;;
23750;SDS011;12055;52.098;13.176;2022-08-19T13:14:51;25.52;;;15.13;;
23750;SDS011;12055;52.098;13.176;2022-08-19T13:17:18;28.58;;;16.02;;
23750;SDS011;12055;52.098;13.176;2022-08-19T13:19:44;21.08;;;13.40;;
23750;SDS011;12055;52.098;13.176;2022-08-19T13:22:10;28.63;;;14.13;;
23750;SDS011;12055;52.098;13.176;2022-08-19T13:24:37;25.00;;;14.52;;
23750;SDS011;12055;52.098;13.176;2022-08-19T13:27:02;22.77;;;14.27;;
23750;SDS011;12055;52.098;13.176;2022-08-19T13:29:28;23.60;;;14.35;;
23750;SDS011;12055;52.098;13.176;2022-08-19T13:32:12;24.15;;;14.30;;
23750;SDS011;12055;52.098;13.176;2022-08-19T13:34:56;22.30;;;15.00;;
23750;SDS011;12055;52.098;13.176;2022-08-19T13:37:22;24.05;;;15.00;;
23750;SDS011;12055;52.098;13.176;2022-08-19T13:40:06;22.05;;;13.63;;
23750;SDS011;12055;52.098;13.176;2022-08-19T13:42:37;23.10;;;14.52;;
23750;SDS011;12055;52.098;13.176;2022-08-19T13:45:06;24.20;;;14.23;;
23750;SDS011;12055;52.098;13.176;2022-08-19T13:47:33;23.17;;;14.27;;
23750;SDS011;12055;52.098;13.176;2022-08-19T13:50:03;24.73;;;14.25;;
23750;SDS011;12055;52.098;13.176;2022-08-19T13:52:28;22.73;;;13.77;;
23750;SDS011;12055;52.098;13.176;2022-08-19T13:54:54;26.63;;;16.17;;
23750;SDS011;12055;52.098;13.176;2022-08-19T13:57:19;22.98;;;14.35;;
23750;SDS011;12055;52.098;13.176;2022-08-19T13:59:45;22.67;;;13.63;;
23750;SDS011;12055;52.098;13.176;2022-08-19T14:02:11;25.33;;;14.43;;
23750;SDS011;12055;52.098;13.176;2022-08-19T14:04:36;23.15;;;13.82;;
23750;SDS011;12055;52.098;13.176;2022-08-19T14:07:02;22.42;;;14.85;;
23750;SDS011;12055;52.098;13.176;2022-08-19T14:09:28;21.48;;;13.60;;
23750;SDS011;12055;52.098;13.176;2022-08-19T14:11:54;24.88;;;14.85;;
23750;SDS011;12055;52.098;13.176;2022-08-19T14:14:20;22.58;;;13.13;;
23750;SDS011;12055;52.098;13.176;2022-08-19T14:16:46;22.40;;;13.82;;
23750;SDS011;12055;52.098;13.176;2022-08-19T14:19:11;23.10;;;15.40;;